Date,TemperatureHighF,TemperatureAvgF,TemperatureLowF,DewpointHighF,DewpointAvgF,DewpointLowF,HumidityHigh,HumidityAvg,HumidityLow,PressureMaxIn,PressureMinIn,WindSpeedMaxMPH,WindSpeedAvgMPH,GustSpeedMaxMPH,PrecipitationSumIn
2013-1-1,23.9,14.8,7.7,14.8,6.3,-0.6,88,69,48,18.44,18.44,15,6,16,0.00
2013-1-2,34.3,20.4,6.3,18.5,9.1,-2.0,78,62,44,18.44,18.44,15,7,15,0.00
2013-1-3,39.0,27.0,13.3,27.7,20.7,7.1,100,78,58,18.44,18.44,12,4,12,0.00
2013-1-4,39.6,25.3,10.9,22.9,16.3,7.0,100,71,46,18.44,18.44,20,7,22,0.00
2013-1-5,41.5,34.0,26.8,35.6,26.8,17.5,100,75,60,18.44,18.44,19,9,19,0.00
2013-1-6,35.8,28.6,23.4,29.6,18.0,9.4,86,65,44,18.44,18.44,20,7,20,0.00
2013-1-7,45.3,33.3,22.6,22.4,19.8,16.6,88,60,40,18.44,18.44,20,8,21,0.00
2013-1-8,50.2,40.5,32.4,25.6,21.9,18.0,62,48,34,18.44,18.44,16,8,16,0.00
2013-1-9,54.3,41.2,33.1,34.5,27.8,20.2,100,61,36,18.44,18.44,11,4,12,0.00
2013-1-10,46.6,41.0,35.6,46.6,33.2,19.0,100,77,40,18.44,18.44,15,5,15,0.39
2013-1-11,59.7,53.1,46.4,51.8,44.0,37.6,100,75,48,18.44,18.44,25,11,25,0.00
2013-1-12,55.9,38.2,23.2,38.2,24.7,14.9,100,61,32,18.44,18.44,23,11,23,0.00
2013-1-13,24.4,19.1,10.4,23.2,9.2,3.8,100,66,48,18.44,18.44,20,8,20,0.00
2013-1-14,32.5,15.8,7.9,11.6,5.1,1.2,76,64,40,18.44,18.44,10,2,10,0.00
2013-1-15,36.1,18.9,6.8,17.1,8.2,-0.9,100,65,38,18.44,18.44,8,1,8,0.00
2013-1-16,42.3,28.0,12.7,22.2,15.3,9.3,100,62,36,18.44,18.44,24,8,24,0.00
2013-1-17,37.9,30.0,25.0,29.0,17.6,9.8,92,61,38,0.00,0.00,19,7,21,0.00
2013-1-18,53.4,38.8,25.2,27.2,20.5,16.6,74,50,32,30.05,0.00,26,12,26,0.00
2013-1-19,58.1,45.3,36.5,31.3,24.2,16.6,60,44,30,30.14,29.87,26,11,28,0.00
2013-1-20,36.5,21.9,15.3,21.5,6.0,1.0,74,51,40,30.37,30.14,26,10,27,0.00
2013-1-21,17.1,12.9,9.1,9.9,0.4,-6.2,76,57,46,30.40,30.29,25,10,25,0.00
2013-1-22,19.2,11.9,5.9,1.8,-4.2,-9.6,48,48,46,30.46,30.32,17,4,17,0.00
2013-1-23,41.5,23.2,9.9,16.6,5.2,-5.9,80,46,36,30.40,30.11,28,8,30,0.00
2013-1-24,27.3,18.5,9.1,7.3,0.9,-6.6,48,46,42,30.61,30.23,26,7,26,0.00
2013-1-25,45.1,31.4,23.7,19.1,10.9,5.0,66,42,34,30.26,30.05,20,6,20,0.00
2013-1-26,42.4,26.3,12.6,17.4,8.4,-0.0,64,47,36,30.40,30.26,15,5,15,0.00
2013-1-27,50.7,40.1,31.1,50.7,39.5,20.4,100,98,64,30.20,29.81,23,9,25,0.04
2013-1-28,68.5,58.8,50.5,60.4,54.2,50.5,100,86,54,29.93,29.72,19,6,19,0.00
2013-1-29,63.3,54.9,37.2,61.9,53.5,37.2,100,95,56,29.75,29.46,34,8,34,1.42
2013-1-30,37.2,30.2,22.8,37.2,24.5,9.5,100,80,52,29.87,29.34,32,12,32,0.24
2013-1-31,24.8,16.8,6.1,14.9,2.8,-9.4,68,53,44,30.37,29.87,27,12,29,0.24
2013-2-1,26.1,14.3,1.9,14.7,-1.1,-13.2,70,50,44,30.43,30.14,18,8,18,0.24
2013-2-2,33.3,27.8,23.2,22.3,11.4,6.4,92,51,40,30.14,30.02,20,8,22,0.24
2013-2-3,38.5,28.2,23.2,30.0,18.4,9.8,100,69,38,30.20,29.99,26,10,31,0.00
2013-2-4,41.4,32.3,25.0,21.7,17.7,13.9,80,56,42,29.99,29.75,28,9,28,0.00
2013-2-5,50.2,34.4,24.6,29.0,24.1,19.3,100,69,38,30.11,29.87,21,7,21,0.00
2013-2-6,54.1,39.2,24.6,35.6,25.4,18.0,100,64,32,30.17,29.99,15,5,17,0.00
2013-2-7,43.2,39.6,33.4,42.8,36.3,25.5,100,89,50,30.11,29.87,24,7,24,0.39
2013-2-8,36.1,32.1,30.4,33.4,27.6,23.1,100,84,60,30.35,30.11,23,7,23,0.00
2013-2-9,43.9,34.0,28.6,36.0,26.2,23.6,100,74,50,30.32,29.96,22,8,22,0.08
2013-2-10,61.2,45.6,36.0,51.3,34.5,17.2,100,73,28,29.96,29.43,32,13,34,0.31
2013-2-11,46.6,37.1,26.1,24.5,17.0,11.7,84,45,34,30.14,29.72,26,10,26,0.00
2013-2-12,45.1,32.3,23.0,29.7,24.1,18.4,100,75,40,30.14,29.93,9,2,9,0.00
2013-2-13,51.3,38.2,28.0,29.2,25.6,20.0,92,63,38,29.93,29.75,15,6,15,0.00
2013-2-14,52.0,40.8,32.9,31.5,25.7,16.4,88,57,36,30.08,29.75,22,8,22,0.00
2013-2-15,41.0,29.6,21.7,27.3,13.2,5.1,82,51,36,30.29,30.08,23,10,23,0.00
2013-2-16,36.9,25.0,14.9,13.6,9.8,5.1,74,54,38,30.26,30.14,17,5,17,0.00
2013-2-17,48.7,33.3,20.5,25.3,16.2,11.8,76,52,32,30.14,29.78,18,8,19,0.00
2013-2-18,57.0,42.1,24.6,48.8,29.6,14.0,100,63,40,29.90,29.46,33,13,33,0.51
2013-2-19,28.2,21.9,17.4,15.1,7.5,0.9,66,54,42,30.32,29.90,24,11,25,0.00
2013-2-20,25.0,17.1,7.3,9.7,2.1,-5.8,70,51,42,30.43,30.29,17,6,18,0.00
2013-2-21,30.0,22.7,14.2,30.0,19.2,7.4,100,87,66,30.32,29.81,20,5,20,0.00
2013-2-22,34.7,31.7,29.5,32.2,25.6,15.7,100,80,56,29.93,29.75,20,7,20,0.00
2013-2-23,38.7,23.9,9.0,16.4,12.2,6.1,100,65,38,30.02,29.99,13,4,13,0.04
2013-2-24,50.5,31.2,14.5,23.8,17.3,12.2,96,62,32,30.08,29.99,10,3,10,0.12
2013-2-25,55.0,36.0,20.8,30.9,23.5,18.0,100,65,30,30.08,29.78,19,4,19,0.00
2013-2-26,36.3,33.7,31.8,36.3,32.6,24.8,100,96,64,29.78,29.49,24,9,24,0.43
2013-2-27,37.4,32.6,30.2,34.0,31.4,29.2,100,96,78,29.90,29.70,15,4,15,0.04
2013-2-28,35.6,31.4,28.6,32.5,27.1,21.9,100,85,60,30.14,29.90,16,8,16,0.00
2013-3-1,37.8,28.9,21.2,29.5,23.1,13.1,100,81,48,30.26,30.11,16,8,17,0.00
2013-3-2,34.7,25.6,12.7,24.8,14.1,5.1,100,65,40,30.29,30.23,17,7,17,0.00
2013-3-3,43.0,27.5,10.4,22.5,12.9,4.3,100,57,36,30.23,29.99,11,3,11,0.00
2013-3-4,50.4,37.6,31.1,28.9,23.4,14.8,90,60,32,30.02,29.78,18,7,18,0.00
2013-3-5,34.0,31.9,29.1,33.3,25.0,15.0,100,77,50,30.17,29.87,27,8,28,0.04
2013-3-6,38.5,28.5,16.5,19.9,14.9,8.6,94,58,38,30.37,30.17,22,8,24,0.00
2013-3-7,48.6,30.2,14.5,27.5,19.3,12.7,100,69,32,30.40,30.32,11,3,11,0.00
2013-3-8,51.1,38.2,28.4,27.4,23.5,19.1,94,59,32,30.37,30.14,15,7,15,0.00
2013-3-9,51.6,43.3,37.4,41.4,34.7,25.2,100,74,48,30.14,29.72,21,9,21,0.94
2013-3-10,52.7,48.0,39.2,52.7,48.0,39.2,100,100,100,29.78,29.58,18,6,24,0.63
2013-3-11,39.2,33.8,29.3,39.2,29.4,19.3,100,85,60,29.96,29.70,17,8,21,0.00
2013-3-12,44.6,31.9,24.3,25.5,20.2,16.0,86,63,40,30.23,29.96,24,8,24,0.00
2013-3-13,40.5,30.8,22.8,17.3,13.6,7.3,66,50,36,30.43,30.23,22,8,22,0.00
2013-3-14,61.2,40.7,25.9,28.9,20.6,13.8,68,47,28,30.35,30.05,21,5,21,0.00
2013-3-15,68.2,49.9,32.7,43.5,31.3,23.1,88,54,24,30.08,29.67,12,3,12,0.00
2013-3-16,45.5,39.0,35.2,44.1,32.4,25.3,100,78,58,30.11,29.67,25,10,25,0.00
2013-3-17,41.7,34.4,31.3,35.1,26.0,17.4,100,73,42,30.14,29.84,21,6,21,0.04
2013-3-18,50.2,38.0,29.3,40.3,27.4,7.8,100,72,32,30.02,29.72,28,8,28,0.04
2013-3-19,46.8,34.1,24.1,19.9,12.0,5.1,48,40,34,30.20,29.99,17,7,18,0.00
2013-3-20,35.1,26.7,18.5,16.4,8.2,1.4,64,45,40,30.29,30.14,28,12,28,0.00
2013-3-21,45.5,27.2,13.3,19.1,8.9,2.3,72,47,34,30.14,29.96,15,3,15,0.00
2013-3-22,45.9,33.3,20.1,19.1,13.9,3.7,74,46,34,30.05,29.99,9,1,11,0.00
2013-3-23,58.8,42.2,32.4,35.2,21.3,14.2,100,46,28,30.05,29.90,20,4,20,0.00
2013-3-24,33.6,31.8,30.2,33.6,31.8,30.2,100,100,100,29.96,29.72,26,11,28,0.00
2013-3-25,36.9,32.1,29.7,31.3,24.2,14.2,100,75,44,30.20,29.87,19,10,21,0.00
2013-3-26,43.7,33.6,26.2,21.9,18.0,10.4,82,54,36,30.35,30.20,13,6,15,0.00
2013-3-27,52.3,36.0,22.8,30.4,19.8,12.7,92,56,32,30.37,30.29,8,2,8,0.00
2013-3-28,58.8,42.8,29.7,25.9,21.4,15.1,64,44,28,30.35,30.20,11,3,11,0.00
2013-3-29,68.2,48.4,31.1,34.2,29.6,21.8,100,55,24,30.26,30.17,11,2,13,0.00
2013-3-30,55.8,48.2,41.5,44.1,37.3,29.9,96,68,40,30.20,29.90,20,7,20,0.00
2013-3-31,65.5,52.6,39.7,50.5,36.0,18.0,100,61,26,30.02,29.84,22,8,24,0.00
2013-4-1,47.5,37.8,28.4,20.5,15.7,8.5,64,41,34,30.29,29.99,26,11,27,0.00
2013-4-2,52.5,35.6,21.2,23.2,16.0,7.3,84,47,32,30.35,30.26,16,4,17,0.00
2013-4-3,58.8,39.0,22.3,25.9,17.9,10.6,70,45,28,30.40,30.26,13,2,13,0.00
2013-4-4,65.5,47.6,28.9,29.7,21.1,10.9,56,36,26,30.26,30.02,11,2,11,0.00
2013-4-5,70.5,52.4,35.2,34.3,26.6,16.8,88,40,24,30.20,29.96,16,4,16,0.00
2013-4-6,73.0,61.6,52.3,33.8,27.6,22.9,32,28,22,29.96,29.67,35,12,37,0.00
2013-4-7,79.9,62.9,42.8,46.4,32.9,24.4,84,37,20,29.96,29.72,17,4,17,0.00
2013-4-8,77.4,64.2,54.3,60.4,51.0,41.7,100,66,30,29.81,29.61,32,6,32,0.75
2013-4-9,77.7,69.7,63.5,53.8,47.0,36.9,64,46,26,29.81,29.72,27,9,28,0.00
2013-4-10,69.1,53.7,47.1,60.6,50.4,44.5,100,91,50,29.93,29.67,33,7,34,1.57
2013-4-11,50.4,43.1,37.6,50.4,35.8,25.0,100,77,56,29.72,29.67,25,8,25,0.00
2013-4-12,45.7,39.4,36.5,30.4,26.9,24.8,72,60,54,29.99,29.70,17,7,17,0.00
2013-4-13,62.8,47.5,33.4,32.1,25.5,19.7,66,44,26,30.05,29.87,15,5,15,0.00
2013-4-14,80.8,63.6,47.3,57.9,34.9,27.5,100,38,18,29.87,29.46,28,11,30,0.43
2013-4-15,60.1,53.3,42.1,58.1,43.0,27.5,100,71,34,29.99,29.67,18,6,19,0.16
2013-4-16,53.4,45.9,39.7,42.6,34.6,25.7,100,67,36,30.17,29.99,18,6,18,0.08
2013-4-17,60.3,50.6,45.7,60.3,46.7,32.8,100,88,54,30.14,29.64,29,6,37,3.62
2013-4-18,65.3,52.8,37.9,65.3,48.6,25.3,100,87,58,29.78,29.43,30,9,30,2.40
2013-4-19,49.6,40.7,35.8,25.5,20.7,14.1,60,46,32,30.05,29.72,31,10,31,0.00
2013-4-20,59.0,44.1,27.9,26.5,21.8,14.0,86,44,28,30.29,30.05,12,3,12,0.00
2013-4-21,65.7,52.1,39.7,29.7,24.6,16.9,46,35,26,30.32,30.17,19,9,20,0.00
2013-4-22,73.9,59.9,47.7,32.8,27.4,20.2,38,29,22,30.20,29.87,17,7,17,0.00
2013-4-23,57.4,43.5,38.5,46.4,38.7,24.4,100,87,28,30.05,29.90,24,10,24,0.63
2013-4-24,55.9,43.5,35.4,38.7,25.9,18.0,100,55,30,30.17,29.99,20,8,20,0.00
2013-4-25,66.6,51.4,38.5,33.2,25.4,17.9,76,38,24,30.29,30.14,20,6,20,0.00
2013-4-26,65.3,55.8,48.9,35.8,28.1,20.4,52,35,26,30.29,30.17,26,10,26,0.00
2013-4-27,58.1,52.0,46.0,52.3,44.9,34.8,100,78,52,30.26,29.93,9,2,10,0.04
2013-4-28,71.8,58.6,51.8,53.2,44.6,31.7,100,67,28,29.93,29.81,13,5,14,0.00
2013-4-29,85.6,67.0,50.2,50.5,43.4,35.3,100,51,22,29.87,29.58,22,9,22,0.00
2013-4-30,88.3,75.4,65.5,47.9,41.6,30.8,52,32,16,29.81,29.64,26,10,26,0.00
2013-5-1,87.6,73.4,58.3,44.1,35.7,27.2,42,26,16,30.08,29.81,33,7,33,0.00
2013-5-2,58.3,47.7,38.3,40.6,32.5,24.5,100,59,34,30.26,30.05,28,13,28,0.24
2013-5-3,44.4,39.6,37.0,44.4,39.6,37.0,100,100,100,30.20,29.75,24,12,24,2.01
2013-5-4,55.0,47.9,42.4,55.0,45.3,36.8,100,92,52,30.02,29.75,10,3,10,0.04
2013-5-5,72.0,57.6,46.0,59.4,48.2,35.3,100,76,28,30.02,29.84,21,6,24,0.08
2013-5-6,77.0,63.4,51.8,57.4,43.3,30.4,100,56,20,29.99,29.87,22,6,22,0.04
2013-5-7,85.8,68.5,52.7,51.2,37.3,27.2,92,37,16,30.02,29.87,10,2,10,0.00
2013-5-8,85.3,67.8,53.1,46.2,38.3,29.9,64,37,16,29.99,29.84,13,3,13,0.00
2013-5-9,72.5,64.4,59.2,66.0,55.7,42.6,100,76,46,29.90,29.78,14,5,15,0.47
2013-5-10,61.3,57.3,49.3,60.3,49.7,39.7,100,77,48,30.02,29.81,22,7,22,0.04
2013-5-11,62.6,54.5,45.3,57.4,35.1,18.6,100,56,26,30.14,29.99,31,10,31,0.00
2013-5-12,63.1,50.5,38.1,28.9,22.4,14.5,48,33,26,30.23,30.08,18,6,21,0.04
2013-5-13,77.0,59.9,40.6,36.8,29.5,20.2,80,35,20,30.20,29.90,17,6,17,0.04
2013-5-14,91.4,76.1,58.6,44.6,37.8,25.6,48,26,18,29.90,29.58,22,9,23,0.00
2013-5-15,92.3,79.1,67.3,44.6,38.4,30.8,34,24,18,29.81,29.67,17,6,21,0.00
2013-5-16,90.1,76.1,66.6,64.2,47.5,37.5,90,41,20,29.87,29.72,17,6,17,0.00
2013-5-17,84.4,71.9,59.4,59.1,43.3,37.0,74,38,22,29.90,29.81,14,4,14,0.00
2013-5-18,87.6,74.6,64.2,67.6,51.5,36.5,100,53,22,29.93,29.78,15,5,15,0.00
2013-5-19,91.2,78.3,68.4,57.9,48.7,36.5,64,38,20,29.81,29.58,28,8,28,0.00
2013-5-20,85.8,70.3,62.4,68.8,51.8,36.5,100,60,22,29.78,29.58,25,10,28,0.75
2013-5-21,80.8,70.5,63.5,65.1,48.7,30.8,100,53,20,29.70,29.61,21,9,21,0.00
2013-5-22,73.4,65.1,59.2,56.3,41.6,32.6,82,44,26,29.81,29.61,15,5,15,0.20
2013-5-23,71.2,60.7,54.3,61.2,43.3,30.9,100,56,28,30.17,29.81,23,7,23,0.20
2013-5-24,73.0,60.1,46.6,52.3,36.3,24.7,100,49,22,30.37,30.17,11,3,12,0.20
2013-5-25,68.9,57.6,52.2,52.7,40.4,25.0,100,56,28,30.32,30.08,22,4,22,0.43
2013-5-26,74.5,62.1,52.5,67.8,49.4,36.2,100,67,28,30.14,29.84,10,2,10,0.31
2013-5-27,78.6,69.1,63.9,73.9,61.7,41.8,100,82,30,29.93,29.55,34,5,36,3.03
2013-5-28,79.7,71.5,62.1,72.0,58.5,48.9,100,67,40,29.87,29.61,26,9,30,1.81
2013-5-29,87.6,75.8,62.6,65.7,50.2,36.9,100,49,22,29.87,29.70,23,9,26,0.04
2013-5-30,84.9,72.5,62.8,64.6,50.6,36.5,100,53,22,29.75,29.64,31,11,38,0.94
2013-5-31,75.6,67.0,62.1,71.1,64.9,56.2,100,94,54,29.84,29.61,17,5,17,0.83
2013-6-1,79.0,70.0,64.2,67.8,55.7,31.4,100,68,20,29.70,29.64,16,7,16,0.00
2013-6-2,69.3,61.9,52.0,44.1,35.2,28.8,52,37,30,29.96,29.87,19,8,19,0.00
2013-6-3,77.4,63.6,50.4,54.0,37.7,27.3,94,45,20,30.05,29.90,8,2,10,0.00
2013-6-4,82.4,66.7,53.8,46.2,38.8,30.8,74,41,18,30.02,29.90,13,4,13,0.00
2013-6-5,83.1,71.4,57.4,57.0,44.1,36.5,96,43,22,29.96,29.78,10,3,10,0.00
2013-6-6,79.0,70.1,61.7,67.1,42.1,28.8,100,44,20,29.81,29.78,17,7,17,0.00
2013-6-7,77.5,66.0,57.6,55.5,41.8,28.4,88,46,20,29.87,29.81,17,6,17,0.00
2013-6-8,84.6,70.0,54.5,68.6,42.3,30.5,100,48,16,29.90,29.78,16,4,16,0.00
2013-6-9,77.7,68.5,62.8,63.7,45.8,33.6,100,49,26,29.81,29.67,15,6,16,0.28
2013-6-10,88.5,71.8,63.7,66.9,50.6,32.5,100,56,20,29.81,29.70,15,3,15,0.00
2013-6-11,95.2,74.9,62.8,62.7,51.0,40.4,96,51,18,29.84,29.72,17,6,17,0.00
2013-6-12,98.2,84.3,70.9,60.0,46.9,38.3,68,30,16,29.81,29.58,27,8,29,0.00
2013-6-13,90.1,76.7,66.9,67.5,40.8,30.8,100,29,16,29.93,29.70,31,7,31,0.00
2013-6-14,84.6,71.0,61.7,64.6,48.1,32.9,86,48,20,30.02,29.81,15,3,16,0.12
2013-6-15,96.1,76.3,66.0,71.0,54.8,39.5,100,57,18,29.99,29.78,27,6,32,0.79
2013-6-16,94.6,78.3,68.5,72.7,56.3,39.0,100,57,18,29.90,29.81,12,3,12,0.43
2013-6-17,92.8,78.7,67.8,82.6,55.9,39.0,100,57,18,29.90,29.81,10,2,11,0.43
2013-6-18,86.7,75.5,66.9,72.6,50.9,37.1,100,50,22,29.93,29.84,13,5,15,0.00
2013-6-19,91.9,75.7,61.0,58.8,45.8,31.4,86,40,16,30.02,29.93,9,1,9,0.00
2013-6-20,93.2,80.5,66.7,52.0,44.0,39.2,46,30,18,30.02,29.90,15,5,16,0.00
2013-6-21,96.6,84.9,75.4,55.5,46.4,39.8,44,28,18,29.96,29.84,17,8,18,0.00
2013-6-22,97.7,82.8,73.2,58.9,48.9,36.5,54,33,16,29.96,29.84,20,8,20,0.00
2013-6-23,93.7,74.8,68.9,70.7,52.8,37.8,100,52,18,29.96,29.78,29,6,29,0.35
2013-6-24,96.1,80.4,69.8,66.3,51.5,39.0,88,42,18,29.96,29.75,18,8,18,0.00
2013-6-25,94.6,83.4,75.0,60.2,49.4,40.5,60,33,18,29.84,29.70,17,8,17,0.00
2013-6-26,93.6,81.7,71.2,71.0,52.1,42.0,78,39,18,29.72,29.64,21,5,21,0.00
2013-6-27,93.2,80.6,69.1,62.6,50.2,39.8,76,39,18,29.84,29.72,10,3,13,0.00
2013-6-28,87.4,78.1,69.1,60.3,45.8,30.8,72,36,16,29.78,29.64,27,7,27,0.00
2013-6-29,82.8,70.1,62.1,68.2,48.3,32.0,100,52,22,29.72,29.58,28,8,28,0.20
2013-6-30,80.4,70.0,64.9,66.4,53.6,36.0,100,65,24,29.90,29.72,20,7,20,0.08
2013-7-1,81.3,69.7,58.5,65.5,42.6,28.4,100,45,18,29.96,29.90,21,7,21,0.00
2013-7-2,86.4,69.6,56.8,48.0,38.5,30.8,70,36,16,30.02,29.93,18,5,20,0.00
2013-7-3,92.7,73.8,60.4,47.3,41.5,31.1,60,34,16,29.99,29.90,9,2,9,0.00
2013-7-4,92.7,76.4,62.8,58.8,44.3,31.7,80,37,16,29.99,29.90,11,3,11,0.00
2013-7-5,90.5,77.4,64.4,55.5,43.1,32.3,66,32,18,29.96,29.90,12,4,12,0.00
2013-7-6,92.1,77.9,66.6,64.4,48.4,36.5,88,41,18,29.93,29.84,13,5,13,0.00
2013-7-7,95.7,81.7,69.3,50.2,44.5,39.0,48,29,18,29.93,29.87,13,6,13,0.00
2013-7-8,91.9,81.0,74.1,61.1,45.9,39.0,62,31,18,29.96,29.90,15,5,15,0.00
2013-7-9,96.1,85.7,76.3,59.8,46.6,39.8,56,27,18,29.93,29.78,15,6,17,0.00
2013-7-10,89.8,81.3,63.9,75.5,46.2,31.4,88,32,18,29.96,29.78,17,5,17,0.08
2013-7-11,92.3,75.6,59.2,68.5,46.9,31.4,100,44,18,30.02,29.96,9,1,9,0.00
2013-7-12,91.6,73.9,61.7,56.2,44.7,31.2,78,41,16,30.05,29.96,12,2,12,0.00
2013-7-13,92.8,76.6,60.6,51.6,43.1,31.6,58,34,18,30.02,29.96,9,2,9,0.00
2013-7-14,94.5,73.8,63.5,67.1,52.9,39.0,100,55,18,30.08,29.99,8,1,8,0.00
2013-7-15,96.4,82.8,68.9,74.7,53.3,40.4,100,45,18,30.14,30.05,8,2,9,0.00
2013-7-16,96.4,83.9,74.8,74.7,54.8,39.8,96,45,18,30.20,30.14,10,3,13,0.00
2013-7-17,102.6,87.3,74.5,65.3,51.1,41.8,70,34,14,30.23,30.08,7,2,8,0.00
2013-7-18,100.4,87.3,75.4,64.6,50.5,40.5,68,33,14,30.14,29.93,10,4,10,0.00
2013-7-19,98.6,87.2,75.9,58.3,47.3,39.8,54,27,16,29.93,29.75,14,6,15,0.00
2013-7-20,95.5,81.6,70.2,62.0,47.8,38.3,66,34,18,29.87,29.78,12,3,13,0.00
2013-7-21,84.7,73.8,67.5,73.6,61.2,44.7,100,68,26,29.87,29.72,13,2,13,0.24
2013-7-22,94.6,79.5,65.7,77.7,57.2,41.8,100,57,18,29.78,29.67,13,3,13,0.00
2013-7-23,86.5,74.9,64.2,70.7,49.8,36.3,100,47,22,29.87,29.70,16,5,17,0.00
2013-7-24,82.4,71.1,60.8,61.2,43.5,30.0,92,43,18,29.96,29.87,14,2,14,0.00
2013-7-25,90.1,72.6,56.8,58.6,43.6,31.4,92,42,18,30.05,29.96,9,2,10,0.00
2013-7-26,85.3,72.5,62.1,77.2,47.9,35.3,100,43,22,29.96,29.84,23,5,25,0.79
2013-7-27,74.3,64.2,53.2,58.8,41.4,27.7,100,50,22,29.99,29.87,17,6,17,0.00
2013-7-28,79.2,65.2,51.1,50.7,39.1,28.2,88,46,20,29.99,29.90,15,4,15,0.00
2013-7-29,86.0,67.2,53.1,68.7,45.8,31.4,100,55,18,30.08,29.99,8,2,10,0.00
2013-7-30,87.8,73.9,66.6,73.1,59.3,40.1,100,67,20,30.02,29.90,13,3,13,0.71
2013-7-31,80.4,73.7,68.4,72.5,58.3,39.0,100,66,24,29.99,29.93,10,4,11,0.00
2013-8-1,92.3,77.1,65.5,76.0,51.8,31.9,100,52,18,29.99,29.87,10,2,10,0.00
2013-8-2,90.1,76.3,69.3,69.6,49.5,39.8,100,43,20,29.87,29.81,15,6,17,0.00
2013-8-3,84.7,74.2,62.4,71.4,52.1,30.8,100,56,18,30.08,29.87,13,3,14,0.00
2013-8-4,88.2,71.6,58.8,68.9,48.7,31.4,100,54,18,30.11,29.99,8,1,8,0.00
2013-8-5,86.4,74.9,66.4,70.0,50.6,39.8,94,46,22,30.02,29.75,14,5,15,0.00
2013-8-6,91.9,80.2,70.2,81.7,58.7,39.8,100,59,18,29.84,29.75,14,4,14,0.00
2013-8-7,92.3,80.2,73.0,87.2,63.1,42.0,100,61,22,29.81,29.72,13,3,14,0.16
2013-8-8,85.8,74.8,63.9,70.0,54.0,39.8,100,55,22,29.93,29.87,9,3,10,0.16
2013-8-9,90.3,76.3,67.8,76.3,55.5,35.1,100,58,20,30.02,29.90,8,1,8,0.16
2013-8-10,83.8,72.9,61.7,66.0,47.5,31.4,100,47,18,30.11,30.02,17,4,17,0.16
2013-8-11,90.7,74.9,59.5,64.6,47.0,33.2,92,44,16,30.08,29.96,10,2,10,0.16
2013-8-12,86.4,74.4,64.9,63.7,49.0,38.3,88,44,22,29.99,29.84,15,3,15,0.16
2013-8-13,83.5,69.8,57.4,66.0,46.5,28.4,100,50,18,30.08,29.90,14,4,15,0.00
2013-8-14,57.9,55.0,51.6,47.4,45.5,41.8,80,70,56,30.11,30.08,4,0,4,0.00
2013-8-15,85.3,67.4,57.0,53.0,41.1,29.3,76,44,16,30.11,29.99,8,1,9,0.00
2013-8-16,88.0,70.1,56.5,63.5,44.6,30.8,100,48,16,30.11,30.05,8,1,11,0.00
2013-8-17,88.3,70.0,54.5,68.5,46.3,30.8,100,53,16,30.14,30.05,8,1,8,0.00
2013-8-18,91.2,72.3,56.1,65.7,47.4,36.5,100,50,20,30.11,30.02,9,1,9,0.00
2013-8-19,91.0,75.9,61.5,66.0,49.0,37.5,100,46,20,30.05,29.93,11,2,11,0.00
2013-8-20,93.4,78.2,66.2,60.2,48.7,39.0,78,41,18,30.02,29.93,13,5,13,0.00
2013-8-21,94.5,80.0,68.7,58.9,47.7,39.0,70,37,18,30.02,29.93,14,5,14,0.00
2013-8-22,92.8,79.8,70.7,70.2,54.0,41.8,82,46,18,30.02,29.93,10,2,10,0.00
2013-8-23,97.3,82.4,70.3,72.5,52.6,39.0,100,44,16,30.05,29.96,9,1,10,0.00
2013-8-24,96.3,80.8,69.3,61.0,50.3,39.2,74,40,18,30.11,30.02,12,4,12,0.00
2013-8-25,95.5,80.8,69.8,58.6,47.1,38.3,64,34,18,30.17,30.05,12,5,13,0.00
2013-8-26,96.3,82.1,69.4,61.9,49.4,39.8,72,37,18,30.11,29.96,13,6,13,0.00
2013-8-27,97.2,83.8,73.9,65.0,48.9,33.2,72,35,16,29.99,29.87,16,7,17,0.00
2013-8-28,100.8,84.2,70.2,57.6,45.0,36.9,62,28,14,29.96,29.87,11,4,11,0.00
2013-8-29,102.9,84.4,70.7,68.2,48.9,37.7,68,33,14,29.96,29.84,10,2,10,0.00
2013-8-30,103.5,87.8,77.0,73.0,53.3,39.9,86,39,14,29.87,29.72,10,4,13,0.00
2013-8-31,99.5,85.2,73.0,64.5,48.5,39.8,74,32,16,29.75,29.64,12,4,12,0.00
2013-9-1,93.0,79.1,70.0,79.5,53.7,36.3,100,52,18,29.81,29.72,11,3,13,0.00
2013-9-2,85.8,72.7,56.8,63.5,39.8,28.4,100,34,16,29.93,29.81,15,5,15,0.00
2013-9-3,88.0,67.2,52.3,65.1,43.4,28.1,100,52,16,30.05,29.93,8,1,10,0.00
2013-9-4,92.1,72.6,54.3,70.2,42.8,30.2,100,42,16,30.08,29.99,8,1,8,0.00
2013-9-5,96.3,75.8,60.1,55.1,42.5,29.7,76,34,16,30.11,30.05,8,1,9,0.00
2013-9-6,94.8,78.5,65.1,56.1,41.9,32.8,68,29,16,30.08,29.93,12,3,13,0.00
2013-9-7,97.9,82.9,65.1,54.2,42.0,37.7,66,25,16,29.96,29.78,14,6,14,0.00
2013-9-8,95.0,83.6,73.0,67.9,48.4,40.5,84,33,18,29.87,29.78,15,5,15,0.08
2013-9-9,101.8,86.4,75.0,61.6,49.0,33.6,62,31,14,29.87,29.78,17,7,17,0.00
2013-9-10,99.3,87.4,73.9,46.2,41.3,33.3,32,20,16,29.99,29.87,17,6,19,0.00
2013-9-11,99.9,83.8,0.0,46.2,40.1,0.0,38,21,16,30.02,29.93,14,4,14,0.00
2013-9-12,77.5,13.1,0.0,40.0,6.8,0.0,26,4,26,30.05,29.96,17,6,17,0.43
2013-9-13,0.0,0.0,0.0,0.0,0.0,0.0,0,0,100,30.11,30.02,15,3,15,0.31
2013-9-14,0.0,0.0,0.0,0.0,0.0,0.0,0,0,100,30.14,29.93,12,3,12,0.31
2013-9-15,0.0,0.0,0.0,0.0,0.0,0.0,0,0,100,30.11,29.90,13,6,14,0.04
2013-9-16,0.0,0.0,0.0,0.0,0.0,0.0,0,0,100,30.26,30.11,10,2,13,0.00
2013-9-17,0.0,0.0,0.0,0.0,0.0,0.0,0,0,100,30.20,29.99,9,2,10,0.00
2013-9-18,0.0,0.0,0.0,0.0,0.0,0.0,0,0,100,29.99,29.81,17,7,17,0.00
2013-9-19,0.0,0.0,0.0,0.0,0.0,0.0,0,0,100,29.90,29.72,28,9,28,1.06
2013-9-20,0.0,0.0,0.0,0.0,0.0,0.0,0,0,100,29.87,29.78,14,4,14,0.04
2013-9-21,0.0,0.0,0.0,0.0,0.0,0.0,0,0,100,29.96,29.81,15,4,15,0.00
2013-9-22,0.0,0.0,0.0,0.0,0.0,0.0,0,0,100,29.99,29.81,8,1,10,0.00
2013-9-23,79.2,13.9,0.0,55.0,7.7,0.0,48,8,30,29.96,29.06,15,3,16,0.00
2013-9-24,85.5,68.4,54.3,47.3,42.1,29.9,72,41,26,29.12,28.97,13,3,13,0.00
2013-9-25,89.6,69.2,55.9,59.0,49.5,38.8,100,56,26,29.12,29.00,13,2,13,0.00
2013-9-26,89.4,72.1,58.8,60.3,49.0,40.2,100,50,26,29.18,29.06,16,3,16,0.00
2013-9-27,88.7,73.7,62.8,53.8,45.5,35.0,68,39,26,29.26,29.15,17,5,17,0.00
2013-9-28,80.8,68.7,58.8,72.0,52.1,34.3,100,61,28,29.23,29.09,18,6,20,0.28
2013-9-29,79.9,62.6,51.6,65.5,47.0,28.8,100,65,28,29.29,29.18,9,1,10,0.00
2013-9-30,82.0,64.6,46.2,55.5,41.2,28.0,84,45,28,29.18,29.03,14,4,14,0.00
2013-10-1,88.7,73.9,65.3,69.8,55.6,40.2,100,60,26,29.18,29.06,14,6,15,0.00
2013-10-2,90.9,76.1,66.9,80.2,60.5,42.0,100,68,24,29.23,29.12,13,3,13,0.04
2013-10-3,85.1,73.6,68.0,72.9,61.2,42.0,100,70,26,29.12,28.97,20,4,20,0.31
2013-10-4,93.2,79.3,71.6,73.4,58.0,43.2,100,58,22,29.12,29.03,18,7,18,0.00
2013-10-5,76.1,65.8,50.9,67.6,54.6,41.1,96,68,44,29.12,29.03,14,6,15,0.08
2013-10-6,59.0,50.2,43.2,53.1,38.3,25.2,100,67,34,29.12,29.03,20,6,20,31.91
2013-10-7,74.8,60.4,51.6,55.0,42.0,27.8,100,58,28,29.32,29.12,12,4,13,0.00
2013-10-8,80.6,64.0,50.0,46.9,37.8,30.4,80,40,28,29.41,29.26,15,5,15,0.00
2013-10-9,78.8,62.4,49.1,46.6,38.9,28.6,80,45,28,29.38,29.26,11,2,11,0.00
2013-10-10,82.2,66.2,53.2,56.0,43.3,32.6,94,47,28,29.35,29.15,14,3,14,0.00
2013-10-11,82.2,69.0,59.2,63.5,48.1,36.2,100,54,28,29.21,29.03,17,6,17,0.00
2013-10-12,74.5,64.8,47.8,59.0,40.8,23.6,80,43,28,29.44,29.09,16,6,16,0.00
2013-10-13,74.7,54.2,41.0,50.2,33.8,22.2,100,50,28,29.68,29.44,11,2,12,0.00
2013-10-14,72.5,56.7,42.1,43.7,30.5,20.2,58,37,28,29.59,29.21,12,3,13,0.00
2013-10-15,71.1,62.0,47.3,69.1,44.4,25.7,100,58,30,29.21,29.06,19,7,19,0.20
2013-10-16,58.8,51.4,45.9,33.8,27.5,24.8,58,40,34,29.26,29.18,15,5,15,0.00
2013-10-17,69.6,55.1,47.3,53.2,37.6,25.7,100,58,30,29.23,29.06,14,5,17,0.04
2013-10-18,60.1,47.6,41.7,46.4,33.0,22.2,100,61,34,29.32,29.21,13,5,13,0.04
2013-10-19,61.3,48.0,38.7,44.8,33.4,22.2,100,64,32,29.29,29.12,17,7,21,0.04
2013-10-20,77.2,58.1,44.4,43.2,33.0,24.2,58,40,28,29.15,28.94,25,8,25,0.04
2013-10-21,58.5,48.1,38.8,33.0,24.9,18.7,58,40,34,29.26,29.06,17,6,20,0.04
2013-10-22,56.3,43.9,37.4,44.9,33.1,25.0,100,67,34,29.26,29.03,24,7,24,0.04
2013-10-23,50.9,41.4,35.2,41.4,30.4,18.7,100,69,38,29.35,29.26,15,5,16,0.04
2013-10-24,47.3,38.1,28.4,38.1,20.4,11.4,90,50,38,29.62,29.35,20,6,20,0.00
2013-10-25,59.9,42.4,26.1,34.3,25.9,20.0,88,57,34,29.68,29.35,18,5,18,0.04
2013-10-26,61.9,48.0,32.2,32.1,23.7,13.7,46,38,32,29.38,29.23,22,7,24,0.00
2013-10-27,63.3,44.7,29.3,36.8,26.0,13.7,90,51,32,29.38,29.18,14,4,15,0.04
2013-10-28,74.7,51.8,32.7,42.9,26.7,14.2,60,38,28,29.44,29.26,9,1,10,0.04
2013-10-29,59.5,51.8,42.8,58.5,33.4,20.2,100,52,34,29.44,29.26,8,2,9,0.04
2013-10-30,71.8,64.9,58.5,71.8,64.9,58.5,100,100,92,29.26,28.97,17,4,17,0.71
2013-10-31,67.5,58.0,47.3,67.5,57.7,45.0,100,99,84,28.97,28.67,17,7,17,0.79
2013-11-1,60.4,50.2,45.1,48.7,37.0,22.7,100,66,34,29.09,28.82,14,6,15,0.04
2013-11-2,56.7,46.4,36.0,40.9,28.6,17.4,88,52,34,29.41,29.06,25,6,25,0.04
2013-11-3,60.8,46.3,32.9,36.7,28.0,21.9,94,53,34,29.47,29.29,18,5,20,0.04
2013-11-4,60.8,53.9,48.2,32.1,27.4,23.8,38,36,32,29.38,29.26,17,8,26,0.04
2013-11-5,61.2,57.5,53.8,59.9,52.3,31.5,100,86,40,29.41,29.12,20,8,22,0.20
2013-11-6,61.9,46.7,31.5,61.9,37.7,20.2,100,74,38,29.53,29.09,21,8,22,0.59
2013-11-7,55.9,40.9,30.7,40.1,26.4,14.2,100,61,34,29.56,29.47,15,4,15,0.04
2013-11-8,59.2,44.1,30.0,33.3,26.4,19.7,96,54,34,29.56,29.18,26,7,26,0.00
2013-11-9,68.2,54.2,45.1,35.6,27.9,22.2,54,36,30,29.50,29.18,23,8,23,0.04
2013-11-10,56.7,43.5,33.4,28.8,22.1,16.4,70,43,34,29.65,29.47,15,4,15,0.04
2013-11-11,61.3,43.3,26.4,40.8,25.9,8.8,100,54,32,29.83,29.41,28,10,28,0.04
2013-11-12,36.1,24.5,16.9,16.4,9.0,1.2,70,52,40,30.06,29.83,17,6,22,0.04
2013-11-13,48.9,34.1,16.9,24.5,15.7,2.3,66,47,38,29.91,29.44,20,9,20,0.00
2013-11-14,58.3,43.9,34.2,30.1,21.1,14.5,44,40,34,29.47,29.21,25,11,26,0.00
2013-11-15,60.6,48.3,42.3,39.8,24.9,20.2,72,40,34,29.26,29.12,17,8,18,0.00
2013-11-16,64.4,58.6,48.4,52.9,45.1,35.5,78,62,36,29.12,28.76,28,12,28,0.04
2013-11-17,74.3,59.2,43.7,60.2,42.8,25.4,90,58,30,29.21,28.53,30,11,32,0.16
2013-11-18,54.1,42.6,31.1,40.1,26.7,13.1,90,56,36,29.56,29.21,17,5,17,0.00
2013-11-19,55.0,39.7,27.0,28.6,21.8,15.7,82,51,36,29.59,29.41,13,5,16,0.00
2013-11-20,45.1,40.6,38.3,42.3,28.1,17.2,100,64,42,29.44,29.21,17,7,17,0.31
2013-11-21,52.0,47.9,42.1,52.0,39.6,26.3,100,76,44,29.53,29.26,19,5,20,0.20
2013-11-22,42.1,34.2,23.7,42.1,27.8,17.2,100,79,44,29.83,29.53,21,10,24,0.00
2013-11-23,26.4,21.2,11.3,20.0,6.2,-2.1,86,53,42,30.03,29.83,27,10,28,0.00
2013-11-24,32.5,20.7,8.4,15.6,4.2,-5.0,88,49,40,30.00,29.65,14,4,14,0.00
2013-11-25,37.8,31.7,26.2,17.3,12.2,6.3,46,44,40,29.65,29.38,17,8,17,0.00
2013-11-26,36.9,27.7,19.0,23.9,11.3,1.2,76,50,40,29.56,29.35,28,9,28,0.00
2013-11-27,31.8,21.2,12.7,13.4,3.6,-2.2,54,46,40,29.65,29.44,14,6,15,0.00
2013-11-28,42.4,29.5,18.5,21.0,10.4,2.0,50,44,40,29.77,29.38,15,7,19,0.00
2013-11-29,46.0,30.2,13.8,23.1,14.2,2.3,84,53,40,29.85,29.56,14,4,14,0.00
2013-11-30,56.7,41.7,33.1,29.0,22.5,14.2,74,48,34,29.56,29.29,15,5,16,0.00
2013-12-1,53.4,39.8,27.9,43.5,26.1,16.4,100,63,36,29.38,29.18,8,1,8,0.00
2013-12-2,57.2,42.8,35.1,37.9,27.6,20.2,82,57,34,29.21,28.88,14,3,14,0.00
2013-12-3,58.5,49.4,39.2,52.0,44.3,32.5,100,85,38,28.94,28.79,16,5,17,0.00
2013-12-4,63.0,50.4,29.3,56.1,40.8,13.0,100,73,34,29.18,28.76,20,7,20,0.00
2013-12-5,29.3,22.8,19.8,15.6,4.3,1.4,56,44,42,29.59,29.18,19,10,20,0.00
2013-12-6,20.3,15.6,9.3,2.0,-1.1,-6.4,48,47,44,29.88,29.59,21,10,24,0.00
2013-12-7,26.6,12.8,5.2,6.6,-3.6,-10.2,48,47,42,30.00,29.77,15,6,16,0.00
2013-12-8,27.0,22.4,16.2,20.8,9.2,-1.0,84,58,42,29.77,29.26,11,4,11,0.00
2013-12-9,23.9,16.4,7.9,14.9,2.4,-7.7,76,54,44,29.59,29.35,13,6,15,0.00
2013-12-10,34.0,20.2,5.9,15.1,2.5,-9.6,48,46,40,29.56,29.38,20,7,24,0.00
2013-12-11,27.0,17.7,2.8,9.6,0.5,-12.4,50,46,42,29.88,29.50,26,8,32,0.00
2013-12-12,43.5,23.4,3.2,21.1,5.0,-12.1,48,45,40,29.88,29.47,17,7,21,0.00
2013-12-13,37.6,33.0,24.4,36.9,22.0,5.5,100,67,42,29.47,29.23,13,5,15,0.04
2013-12-14,36.7,30.0,18.3,36.7,26.8,11.4,100,88,66,29.44,29.18,0,0,0,0.00
2013-12-15,39.4,23.3,14.4,18.9,13.7,5.6,90,69,40,29.44,29.32,0,0,0,0.00
2013-12-16,34.2,25.5,19.9,28.2,18.5,8.8,100,77,44,29.41,29.26,0,0,0,0.00
2013-12-17,45.0,31.1,21.4,34.8,19.7,2.9,100,68,40,29.50,29.38,16,2,16,0.20
2013-12-18,48.6,36.2,20.7,24.1,15.7,2.7,50,43,38,29.53,29.09,24,10,24,0.20
2013-12-19,55.2,48.3,42.4,43.6,29.7,20.2,72,49,36,29.15,28.97,15,8,17,0.00
2013-12-20,53.1,40.8,33.4,49.5,39.6,33.4,100,96,68,29.18,28.97,13,5,14,0.08
2013-12-21,37.2,32.6,30.4,37.2,31.9,26.3,100,97,82,29.18,28.91,0,0,0,0.04
2013-12-22,37.0,29.5,18.0,37.0,25.6,5.7,100,86,54,29.62,28.94,0,0,0,0.00
2013-12-23,18.7,10.2,2.5,10.5,-1.1,-12.7,74,60,48,29.88,29.59,0,0,0,0.00
2013-12-24,21.4,10.8,-2.6,5.6,-4.9,-17.4,52,48,44,29.88,29.56,0,0,0,0.00
2013-12-25,34.3,29.5,21.6,31.2,21.9,5.8,94,74,46,29.59,29.44,0,0,0,0.00
2013-12-26,41.9,32.1,21.9,27.0,18.8,9.5,88,60,42,29.59,29.41,20,5,23,0.08
2013-12-27,50.7,39.0,30.9,37.4,25.7,17.7,100,64,38,29.62,29.44,20,7,20,0.00
2013-12-28,55.9,43.7,35.8,28.8,22.9,16.6,58,44,34,29.47,29.15,18,9,21,0.00
2013-12-29,39.7,22.1,7.7,29.7,7.1,-7.9,88,53,42,29.59,29.12,26,12,28,0.00
2013-12-30,24.6,14.1,2.7,5.8,-2.9,-12.6,48,46,44,29.65,29.41,13,5,13,0.00
2013-12-31,40.5,25.6,14.0,19.2,10.3,2.5,74,53,40,29.65,29.35,12,5,13,0.00
2014-1-1,26.1,20.3,16.2,17.1,11.6,4.5,88,70,42,29.47,29.38,23,8,24,0.00
2014-1-2,17.8,10.7,-2.2,9.9,-3.3,-17.1,76,53,46,29.74,29.47,22,9,26,0.00